sensor_id;sensor_type;location;lat;lon;timestamp;P1;durP1;ratioP1;P2;durP2;ratioP2
76935;SDS011;65881;52.438;16.744;2023-03-12T00:01:21;4.88;;;3.83;;
76935;SDS011;65881;52.438;16.744;2023-03-12T00:03:49;6.85;;;4.40;;
76935;SDS011;65881;52.438;16.744;2023-03-12T00:06:17;7.75;;;5.40;;
76935;SDS011;65881;52.438;16.744;2023-03-12T00:08:43;9.40;;;5.75;;
76935;SDS011;65881;52.438;16.744;2023-03-12T00:11:10;11.27;;;5.65;;
76935;SDS011;65881;52.438;16.744;2023-03-12T00:13:38;8.00;;;5.72;;
76935;SDS011;65881;52.438;16.744;2023-03-12T00:16:08;7.28;;;5.55;;
76935;SDS011;65881;52.438;16.744;2023-03-12T00:18:35;6.28;;;4.45;;
76935;SDS011;65881;52.438;16.744;2023-03-12T00:21:01;10.32;;;4.43;;
76935;SDS011;65881;52.438;16.744;2023-03-12T00:23:27;5.68;;;4.85;;
76935;SDS011;65881;52.438;16.744;2023-03-12T00:25:57;4.57;;;3.40;;
76935;SDS011;65881;52.438;16.744;2023-03-12T00:28:25;7.72;;;4.93;;
76935;SDS011;65881;52.438;16.744;2023-03-12T00:30:51;6.20;;;4.78;;
76935;SDS011;65881;52.438;16.744;2023-03-12T00:33:17;13.57;;;4.57;;
76935;SDS011;65881;52.438;16.744;2023-03-12T00:35:43;6.90;;;4.50;;
76935;SDS011;65881;52.438;16.744;2023-03-12T00:38:09;6.85;;;4.68;;
76935;SDS011;65881;52.438;16.744;2023-03-12T00:40:34;6.18;;;4.78;;
76935;SDS011;65881;52.438;16.744;2023-03-12T00:43:00;7.55;;;4.47;;
76935;SDS011;65881;52.438;16.744;2023-03-12T00:45:26;8.20;;;4.40;;
76935;SDS011;65881;52.438;16.744;2023-03-12T00:47:52;8.95;;;3.95;;
76935;SDS011;65881;52.438;16.744;2023-03-12T00:50:19;9.82;;;4.40;;
76935;SDS011;65881;52.438;16.744;2023-03-12T00:52:45;6.90;;;4.28;;
76935;SDS011;65881;52.438;16.744;2023-03-12T00:55:10;5.50;;;3.60;;
76935;SDS011;65881;52.438;16.744;2023-03-12T00:57:39;8.90;;;5.85;;
76935;SDS011;65881;52.438;16.744;2023-03-12T01:00:05;7.55;;;3.97;;
76935;SDS011;65881;52.438;16.744;2023-03-12T01:02:35;6.70;;;4.43;;
76935;SDS011;65881;52.438;16.744;2023-03-12T01:05:02;5.93;;;4.00;;
76935;SDS011;65881;52.438;16.744;2023-03-12T01:07:29;7.00;;;4.43;;
76935;SDS011;65881;52.438;16.744;2023-03-12T01:09:54;6.03;;;4.60;;
76935;SDS011;65881;52.438;16.744;2023-03-12T01:12:20;6.18;;;4.40;;
76935;SDS011;65881;52.438;16.744;2023-03-12T01:14:46;8.93;;;4.57;;
76935;SDS011;65881;52.438;16.744;2023-03-12T01:17:12;8.93;;;5.13;;
76935;SDS011;65881;52.438;16.744;2023-03-12T01:19:38;6.80;;;4.93;;
76935;SDS011;65881;52.438;16.744;2023-03-12T01:22:04;6.70;;;3.75;;
76935;SDS011;65881;52.438;16.744;2023-03-12T01:24:30;11.13;;;4.43;;
76935;SDS011;65881;52.438;16.744;2023-03-12T01:26:55;6.88;;;4.57;;
76935;SDS011;65881;52.438;16.744;2023-03-12T01:29:22;8.20;;;4.07;;
76935;SDS011;65881;52.438;16.744;2023-03-12T01:31:48;9.52;;;4.65;;
76935;SDS011;65881;52.438;16.744;2023-03-12T01:34:14;4.13;;;3.63;;
76935;SDS011;65881;52.438;16.744;2023-03-12T01:36:40;6.18;;;3.08;;
76935;SDS011;65881;52.438;16.744;2023-03-12T01:39:06;4.65;;;3.20;;
76935;SDS011;65881;52.438;16.744;2023-03-12T01:41:32;3.65;;;2.95;;
76935;SDS011;65881;52.438;16.744;2023-03-12T01:43:58;7.13;;;3.38;;
76935;SDS011;65881;52.438;16.744;2023-03-12T01:51:34;6.22;;;4.45;;
76935;SDS011;65881;52.438;16.744;2023-03-12T01:54:14;7.82;;;3.45;;
76935;SDS011;65881;52.438;16.744;2023-03-12T01:56:43;6.03;;;3.75;;
76935;SDS011;65881;52.438;16.744;2023-03-12T01:59:34;4.53;;;3.22;;
76935;SDS011;65881;52.438;16.744;2023-03-12T02:02:11;7.07;;;3.63;;
76935;SDS011;65881;52.438;16.744;2023-03-12T02:04:38;5.28;;;4.32;;
76935;SDS011;65881;52.438;16.744;2023-03-12T02:09:45;9.20;;;4.25;;
76935;SDS011;65881;52.438;16.744;2023-03-12T02:12:13;3.35;;;2.88;;
76935;SDS011;65881;52.438;16.744;2023-03-12T02:14:40;6.35;;;4.07;;
76935;SDS011;65881;52.438;16.744;2023-03-12T02:17:06;5.30;;;3.30;;
76935;SDS011;65881;52.438;16.744;2023-03-12T02:19:46;8.35;;;4.20;;
76935;SDS011;65881;52.438;16.744;2023-03-12T02:22:15;5.57;;;3.67;;
76935;SDS011;65881;52.438;16.744;2023-03-12T02:27:20;5.53;;;3.83;;
76935;SDS011;65881;52.438;16.744;2023-03-12T02:29:47;7.18;;;3.95;;
76935;SDS011;65881;52.438;16.744;2023-03-12T02:32:19;4.78;;;3.58;;
76935;SDS011;65881;52.438;16.744;2023-03-12T02:34:48;5.70;;;3.30;;
76935;SDS011;65881;52.438;16.744;2023-03-12T02:37:15;3.88;;;2.78;;
76935;SDS011;65881;52.438;16.744;2023-03-12T02:39:41;4.38;;;3.28;;
76935;SDS011;65881;52.438;16.744;2023-03-12T02:42:10;4.00;;;2.83;;
76935;SDS011;65881;52.438;16.744;2023-03-12T02:44:38;6.95;;;3.30;;
76935;SDS011;65881;52.438;16.744;2023-03-12T02:47:04;10.68;;;3.38;;
76935;SDS011;65881;52.438;16.744;2023-03-12T02:49:31;5.93;;;3.75;;
76935;SDS011;65881;52.438;16.744;2023-03-12T02:51:58;6.30;;;3.58;;
76935;SDS011;65881;52.438;16.744;2023-03-12T02:54:25;4.60;;;3.53;;
76935;SDS011;65881;52.438;16.744;2023-03-12T02:56:59;3.92;;;3.42;;
76935;SDS011;65881;52.438;16.744;2023-03-12T02:59:25;4.32;;;3.10;;
76935;SDS011;65881;52.438;16.744;2023-03-12T03:01:52;4.50;;;2.72;;
76935;SDS011;65881;52.438;16.744;2023-03-12T03:04:22;7.18;;;3.92;;
76935;SDS011;65881;52.438;16.744;2023-03-12T03:06:48;5.10;;;3.45;;
76935;SDS011;65881;52.438;16.744;2023-03-12T03:09:14;5.63;;;3.63;;
76935;SDS011;65881;52.438;16.744;2023-03-12T03:11:40;6.78;;;3.22;;
76935;SDS011;65881;52.438;16.744;2023-03-12T03:14:06;7.88;;;3.40;;
76935;SDS011;65881;52.438;16.744;2023-03-12T03:16:32;8.15;;;4.13;;
76935;SDS011;65881;52.438;16.744;2023-03-12T03:18:58;6.15;;;4.03;;
76935;SDS011;65881;52.438;16.744;2023-03-12T03:21:24;5.03;;;3.63;;
76935;SDS011;65881;52.438;16.744;2023-03-12T03:23:50;5.53;;;3.22;;
76935;SDS011;65881;52.438;16.744;2023-03-12T03:26:17;3.67;;;3.03;;
76935;SDS011;65881;52.438;16.744;2023-03-12T03:28:45;3.17;;;2.60;;
76935;SDS011;65881;52.438;16.744;2023-03-12T03:31:10;4.22;;;3.40;;
76935;SDS011;65881;52.438;16.744;2023-03-12T03:33:37;5.72;;;2.70;;
76935;SDS011;65881;52.438;16.744;2023-03-12T03:36:04;6.50;;;3.42;;
76935;SDS011;65881;52.438;16.744;2023-03-12T03:38:31;3.95;;;3.40;;
76935;SDS011;65881;52.438;16.744;2023-03-12T03:40:58;4.45;;;2.53;;
76935;SDS011;65881;52.438;16.744;2023-03-12T03:43:25;3.78;;;2.97;;
76935;SDS011;65881;52.438;16.744;2023-03-12T03:46:03;7.00;;;3.60;;
76935;SDS011;65881;52.438;16.744;2023-03-12T03:48:30;5.57;;;3.15;;
76935;SDS011;65881;52.438;16.744;2023-03-12T03:51:00;8.60;;;2.85;;
76935;SDS011;65881;52.438;16.744;2023-03-12T03:53:26;4.95;;;2.47;;
76935;SDS011;65881;52.438;16.744;2023-03-12T03:55:51;7.53;;;4.45;;
76935;SDS011;65881;52.438;16.744;2023-03-12T03:58:17;6.18;;;3.42;;
76935;SDS011;65881;52.438;16.744;2023-03-12T04:00:43;6.50;;;3.97;;
76935;SDS011;65881;52.438;16.744;2023-03-12T04:03:10;4.10;;;3.33;;
76935;SDS011;65881;52.438;16.744;2023-03-12T04:05:37;9.20;;;3.35;;
76935;SDS011;65881;52.438;16.744;2023-03-12T04:08:02;5.10;;;2.70;;
76935;SDS011;65881;52.438;16.744;2023-03-12T04:10:29;9.65;;;4.22;;
76935;SDS011;65881;52.438;16.744;2023-03-12T04:12:57;4.07;;;3.67;;
76935;SDS011;65881;52.438;16.744;2023-03-12T04:15:23;5.28;;;3.50;;
76935;SDS011;65881;52.438;16.744;2023-03-12T04:17:49;5.03;;;3.58;;
76935;SDS011;65881;52.438;16.744;2023-03-12T04:20:15;11.57;;;3.30;;
76935;SDS011;65881;52.438;16.744;2023-03-12T04:22:41;3.55;;;2.65;;
76935;SDS011;65881;52.438;16.744;2023-03-12T04:25:07;7.85;;;3.75;;
76935;SDS011;65881;52.438;16.744;2023-03-12T04:27:33;4.47;;;3.67;;
76935;SDS011;65881;52.438;16.744;2023-03-12T04:29:59;7.80;;;3.55;;
76935;SDS011;65881;52.438;16.744;2023-03-12T04:32:25;8.80;;;3.40;;
76935;SDS011;65881;52.438;16.744;2023-03-12T04:34:52;4.05;;;3.35;;
76935;SDS011;65881;52.438;16.744;2023-03-12T04:37:18;4.75;;;3.22;;
76935;SDS011;65881;52.438;16.744;2023-03-12T04:39:44;5.97;;;3.20;;
76935;SDS011;65881;52.438;16.744;2023-03-12T04:42:09;3.70;;;2.85;;
76935;SDS011;65881;52.438;16.744;2023-03-12T04:44:36;4.15;;;3.67;;
76935;SDS011;65881;52.438;16.744;2023-03-12T04:47:02;5.38;;;3.58;;
76935;SDS011;65881;52.438;16.744;2023-03-12T04:49:28;5.88;;;3.65;;
76935;SDS011;65881;52.438;16.744;2023-03-12T04:51:54;5.32;;;3.08;;
76935;SDS011;65881;52.438;16.744;2023-03-12T04:54:20;4.57;;;3.33;;
76935;SDS011;65881;52.438;16.744;2023-03-12T04:56:47;5.55;;;2.88;;
76935;SDS011;65881;52.438;16.744;2023-03-12T04:59:13;3.08;;;2.78;;
76935;SDS011;65881;52.438;16.744;2023-03-12T05:01:39;4.00;;;2.90;;
76935;SDS011;65881;52.438;16.744;2023-03-12T05:04:04;4.57;;;3.33;;
76935;SDS011;65881;52.438;16.744;2023-03-12T05:06:31;4.70;;;3.58;;
76935;SDS011;65881;52.438;16.744;2023-03-12T05:08:57;3.60;;;3.10;;
76935;SDS011;65881;52.438;16.744;2023-03-12T05:11:24;5.97;;;3.78;;
76935;SDS011;65881;52.438;16.744;2023-03-12T05:13:50;7.32;;;3.75;;
76935;SDS011;65881;52.438;16.744;2023-03-12T05:16:16;3.35;;;2.75;;
76935;SDS011;65881;52.438;16.744;2023-03-12T05:18:42;4.22;;;3.30;;
76935;SDS011;65881;52.438;16.744;2023-03-12T05:21:13;7.45;;;4.05;;
76935;SDS011;65881;52.438;16.744;2023-03-12T05:23:42;6.05;;;4.10;;
76935;SDS011;65881;52.438;16.744;2023-03-12T05:26:15;5.93;;;3.20;;
76935;SDS011;65881;52.438;16.744;2023-03-12T05:28:46;11.02;;;4.53;;
76935;SDS011;65881;52.438;16.744;2023-03-12T05:31:14;7.40;;;3.63;;
76935;SDS011;65881;52.438;16.744;2023-03-12T05:33:41;5.03;;;3.30;;
76935;SDS011;65881;52.438;16.744;2023-03-12T05:36:07;10.57;;;3.58;;
76935;SDS011;65881;52.438;16.744;2023-03-12T05:38:32;4.45;;;3.55;;
76935;SDS011;65881;52.438;16.744;2023-03-12T05:40:58;3.78;;;3.05;;
76935;SDS011;65881;52.438;16.744;2023-03-12T05:43:25;3.50;;;2.90;;
76935;SDS011;65881;52.438;16.744;2023-03-12T05:45:51;3.33;;;3.03;;
76935;SDS011;65881;52.438;16.744;2023-03-12T05:48:18;5.00;;;3.55;;
76935;SDS011;65881;52.438;16.744;2023-03-12T05:50:44;5.00;;;3.22;;
76935;SDS011;65881;52.438;16.744;2023-03-12T05:53:10;5.65;;;3.65;;
76935;SDS011;65881;52.438;16.744;2023-03-12T05:55:37;6.88;;;5.10;;
76935;SDS011;65881;52.438;16.744;2023-03-12T05:58:04;5.15;;;3.50;;
76935;SDS011;65881;52.438;16.744;2023-03-12T06:00:31;3.67;;;2.80;;
76935;SDS011;65881;52.438;16.744;2023-03-12T06:02:57;4.75;;;3.38;;
76935;SDS011;65881;52.438;16.744;2023-03-12T06:05:22;9.82;;;3.05;;
76935;SDS011;65881;52.438;16.744;2023-03-12T06:07:49;4.57;;;2.80;;
76935;SDS011;65881;52.438;16.744;2023-03-12T06:10:14;6.53;;;3.30;;
76935;SDS011;65881;52.438;16.744;2023-03-12T06:12:40;9.60;;;4.03;;
76935;SDS011;65881;52.438;16.744;2023-03-12T06:15:06;5.28;;;3.97;;
76935;SDS011;65881;52.438;16.744;2023-03-12T06:17:32;5.07;;;4.13;;
76935;SDS011;65881;52.438;16.744;2023-03-12T06:22:49;6.18;;;3.83;;
76935;SDS011;65881;52.438;16.744;2023-03-12T06:25:15;11.45;;;4.00;;
76935;SDS011;65881;52.438;16.744;2023-03-12T06:27:40;5.28;;;3.50;;
76935;SDS011;65881;52.438;16.744;2023-03-12T06:30:07;5.68;;;4.63;;
76935;SDS011;65881;52.438;16.744;2023-03-12T06:32:33;5.38;;;3.58;;
76935;SDS011;65881;52.438;16.744;2023-03-12T06:34:59;5.38;;;3.55;;
76935;SDS011;65881;52.438;16.744;2023-03-12T06:37:25;6.55;;;4.45;;
76935;SDS011;65881;52.438;16.744;2023-03-12T06:39:51;7.63;;;3.55;;
76935;SDS011;65881;52.438;16.744;2023-03-12T06:42:17;10.32;;;4.13;;
76935;SDS011;65881;52.438;16.744;2023-03-12T06:44:44;6.82;;;3.97;;
76935;SDS011;65881;52.438;16.744;2023-03-12T06:47:10;4.05;;;3.15;;
76935;SDS011;65881;52.438;16.744;2023-03-12T06:49:37;8.65;;;3.60;;
76935;SDS011;65881;52.438;16.744;2023-03-12T06:52:03;6.35;;;3.38;;
76935;SDS011;65881;52.438;16.744;2023-03-12T06:54:29;5.82;;;3.28;;
76935;SDS011;65881;52.438;16.744;2023-03-12T06:56:54;10.75;;;4.15;;
76935;SDS011;65881;52.438;16.744;2023-03-12T06:59:20;4.32;;;3.92;;
76935;SDS011;65881;52.438;16.744;2023-03-12T07:01:47;6.57;;;3.70;;
76935;SDS011;65881;52.438;16.744;2023-03-12T07:04:13;6.53;;;3.35;;
76935;SDS011;65881;52.438;16.744;2023-03-12T07:06:39;8.70;;;4.78;;
76935;SDS011;65881;52.438;16.744;2023-03-12T07:09:05;4.72;;;3.45;;
76935;SDS011;65881;52.438;16.744;2023-03-12T07:11:31;7.93;;;3.30;;
76935;SDS011;65881;52.438;16.744;2023-03-12T07:13:58;6.40;;;3.85;;
76935;SDS011;65881;52.438;16.744;2023-03-12T07:16:24;3.75;;;2.97;;
76935;SDS011;65881;52.438;16.744;2023-03-12T07:18:50;4.40;;;3.53;;
76935;SDS011;65881;52.438;16.744;2023-03-12T07:21:16;4.30;;;3.25;;
76935;SDS011;65881;52.438;16.744;2023-03-12T07:23:47;6.78;;;3.67;;
76935;SDS011;65881;52.438;16.744;2023-03-12T07:26:17;4.20;;;2.60;;
76935;SDS011;65881;52.438;16.744;2023-03-12T07:28:43;9.45;;;4.43;;
76935;SDS011;65881;52.438;16.744;2023-03-12T07:31:09;6.38;;;3.08;;
76935;SDS011;65881;52.438;16.744;2023-03-12T07:33:35;6.32;;;2.78;;
76935;SDS011;65881;52.438;16.744;2023-03-12T07:36:01;6.45;;;3.92;;
76935;SDS011;65881;52.438;16.744;2023-03-12T07:38:27;7.22;;;2.97;;
76935;SDS011;65881;52.438;16.744;2023-03-12T07:40:54;7.22;;;3.35;;
76935;SDS011;65881;52.438;16.744;2023-03-12T07:43:22;5.60;;;3.03;;
76935;SDS011;65881;52.438;16.744;2023-03-12T07:45:49;4.40;;;2.97;;
76935;SDS011;65881;52.438;16.744;2023-03-12T07:48:15;3.08;;;2.38;;
76935;SDS011;65881;52.438;16.744;2023-03-12T07:50:43;7.63;;;2.35;;
76935;SDS011;65881;52.438;16.744;2023-03-12T07:53:09;3.83;;;2.58;;
76935;SDS011;65881;52.438;16.744;2023-03-12T07:55:35;4.25;;;3.03;;
76935;SDS011;65881;52.438;16.744;2023-03-12T07:58:01;4.63;;;2.85;;
76935;SDS011;65881;52.438;16.744;2023-03-12T08:00:27;6.68;;;2.63;;
76935;SDS011;65881;52.438;16.744;2023-03-12T08:02:53;8.57;;;2.83;;
76935;SDS011;65881;52.438;16.744;2023-03-12T08:05:19;4.20;;;2.50;;
76935;SDS011;65881;52.438;16.744;2023-03-12T08:07:49;5.90;;;2.40;;
76935;SDS011;65881;52.438;16.744;2023-03-12T08:10:18;2.22;;;2.03;;
76935;SDS011;65881;52.438;16.744;2023-03-12T08:12:45;6.72;;;3.22;;
76935;SDS011;65881;52.438;16.744;2023-03-12T08:15:10;2.83;;;2.08;;
76935;SDS011;65881;52.438;16.744;2023-03-12T08:17:38;5.30;;;3.15;;
76935;SDS011;65881;52.438;16.744;2023-03-12T08:20:04;3.40;;;2.55;;
76935;SDS011;65881;52.438;16.744;2023-03-12T08:22:34;5.28;;;2.63;;
76935;SDS011;65881;52.438;16.744;2023-03-12T08:25:00;5.90;;;2.42;;
76935;SDS011;65881;52.438;16.744;2023-03-12T08:27:26;3.05;;;1.95;;
76935;SDS011;65881;52.438;16.744;2023-03-12T08:29:52;2.97;;;2.25;;
76935;SDS011;65881;52.438;16.744;2023-03-12T08:32:17;5.55;;;2.33;;
76935;SDS011;65881;52.438;16.744;2023-03-12T08:34:43;5.40;;;2.90;;
76935;SDS011;65881;52.438;16.744;2023-03-12T08:37:09;10.10;;;3.70;;
76935;SDS011;65881;52.438;16.744;2023-03-12T08:39:35;10.25;;;4.30;;
76935;SDS011;65881;52.438;16.744;2023-03-12T08:42:01;4.07;;;3.17;;
76935;SDS011;65881;52.438;16.744;2023-03-12T08:44:41;5.10;;;3.30;;
76935;SDS011;65881;52.438;16.744;2023-03-12T08:47:07;5.28;;;3.95;;
76935;SDS011;65881;52.438;16.744;2023-03-12T08:49:34;6.10;;;3.60;;
76935;SDS011;65881;52.438;16.744;2023-03-12T08:52:00;5.90;;;3.30;;
76935;SDS011;65881;52.438;16.744;2023-03-12T08:54:27;3.85;;;2.42;;
76935;SDS011;65881;52.438;16.744;2023-03-12T08:56:55;8.18;;;4.22;;
76935;SDS011;65881;52.438;16.744;2023-03-12T08:59:24;4.47;;;2.63;;
76935;SDS011;65881;52.438;16.744;2023-03-12T09:01:50;3.75;;;3.00;;
76935;SDS011;65881;52.438;16.744;2023-03-12T09:04:16;7.43;;;3.13;;
76935;SDS011;65881;52.438;16.744;2023-03-12T09:06:43;4.07;;;3.35;;
76935;SDS011;65881;52.438;16.744;2023-03-12T09:09:11;6.13;;;3.33;;
76935;SDS011;65881;52.438;16.744;2023-03-12T09:14:53;8.52;;;3.95;;
76935;SDS011;65881;52.438;16.744;2023-03-12T09:17:18;4.53;;;2.75;;
76935;SDS011;65881;52.438;16.744;2023-03-12T09:19:44;7.18;;;3.03;;
76935;SDS011;65881;52.438;16.744;2023-03-12T09:22:10;6.50;;;3.28;;
76935;SDS011;65881;52.438;16.744;2023-03-12T09:24:42;5.53;;;2.80;;
76935;SDS011;65881;52.438;16.744;2023-03-12T09:30:42;3.72;;;3.20;;
76935;SDS011;65881;52.438;16.744;2023-03-12T09:33:09;3.97;;;2.45;;
76935;SDS011;65881;52.438;16.744;2023-03-12T09:35:44;3.75;;;3.03;;
76935;SDS011;65881;52.438;16.744;2023-03-12T09:38:21;11.32;;;2.95;;
76935;SDS011;65881;52.438;16.744;2023-03-12T09:40:47;3.55;;;3.08;;
76935;SDS011;65881;52.438;16.744;2023-03-12T09:46:03;8.05;;;2.85;;
76935;SDS011;65881;52.438;16.744;2023-03-12T09:48:36;3.22;;;2.92;;
76935;SDS011;65881;52.438;16.744;2023-03-12T09:51:39;2.90;;;2.50;;
76935;SDS011;65881;52.438;16.744;2023-03-12T09:54:03;5.40;;;2.38;;
76935;SDS011;65881;52.438;16.744;2023-03-12T09:56:32;6.00;;;2.35;;
76935;SDS011;65881;52.438;16.744;2023-03-12T09:58:59;2.85;;;2.03;;
76935;SDS011;65881;52.438;16.744;2023-03-12T10:12:27;4.10;;;2.92;;
76935;SDS011;65881;52.438;16.744;2023-03-12T10:26:50;5.60;;;2.75;;
76935;SDS011;65881;52.438;16.744;2023-03-12T10:29:23;4.88;;;2.47;;
76935;SDS011;65881;52.438;16.744;2023-03-12T10:34:46;7.07;;;2.55;;
76935;SDS011;65881;52.438;16.744;2023-03-12T10:39:49;3.40;;;2.58;;
76935;SDS011;65881;52.438;16.744;2023-03-12T10:42:22;4.03;;;2.60;;
76935;SDS011;65881;52.438;16.744;2023-03-12T10:44:51;5.50;;;2.28;;
76935;SDS011;65881;52.438;16.744;2023-03-12T10:50:17;4.40;;;2.47;;
76935;SDS011;65881;52.438;16.744;2023-03-12T10:52:53;8.65;;;3.22;;
76935;SDS011;65881;52.438;16.744;2023-03-12T10:58:52;5.00;;;2.53;;
76935;SDS011;65881;52.438;16.744;2023-03-12T11:01:22;3.70;;;2.60;;
76935;SDS011;65881;52.438;16.744;2023-03-12T11:04:06;3.90;;;2.50;;
76935;SDS011;65881;52.438;16.744;2023-03-12T11:06:33;5.72;;;2.65;;
76935;SDS011;65881;52.438;16.744;2023-03-12T11:11:37;2.85;;;2.53;;
76935;SDS011;65881;52.438;16.744;2023-03-12T11:14:07;3.78;;;2.72;;
76935;SDS011;65881;52.438;16.744;2023-03-12T11:19:52;4.10;;;2.30;;
76935;SDS011;65881;52.438;16.744;2023-03-12T11:22:32;3.25;;;2.50;;
76935;SDS011;65881;52.438;16.744;2023-03-12T11:27:48;6.32;;;2.47;;
76935;SDS011;65881;52.438;16.744;2023-03-12T11:30:25;4.47;;;2.85;;
76935;SDS011;65881;52.438;16.744;2023-03-12T11:33:03;4.50;;;3.28;;
76935;SDS011;65881;52.438;16.744;2023-03-12T11:35:45;9.48;;;3.10;;
76935;SDS011;65881;52.438;16.744;2023-03-12T11:38:40;4.15;;;2.45;;
76935;SDS011;65881;52.438;16.744;2023-03-12T11:44:26;3.50;;;2.47;;
76935;SDS011;65881;52.438;16.744;2023-03-12T12:09:43;11.77;;;2.67;;
76935;SDS011;65881;52.438;16.744;2023-03-12T12:17:58;8.68;;;2.60;;
76935;SDS011;65881;52.438;16.744;2023-03-12T12:23:01;3.20;;;2.28;;
76935;SDS011;65881;52.438;16.744;2023-03-12T12:31:21;6.82;;;2.40;;
76935;SDS011;65881;52.438;16.744;2023-03-12T12:34:04;4.63;;;2.50;;
76935;SDS011;65881;52.438;16.744;2023-03-12T12:36:33;4.40;;;2.55;;
76935;SDS011;65881;52.438;16.744;2023-03-12T12:39:14;9.25;;;3.28;;
76935;SDS011;65881;52.438;16.744;2023-03-12T12:41:57;4.55;;;2.00;;
76935;SDS011;65881;52.438;16.744;2023-03-12T12:45:03;6.75;;;2.17;;
76935;SDS011;65881;52.438;16.744;2023-03-12T12:47:33;5.70;;;2.55;;
76935;SDS011;65881;52.438;16.744;2023-03-12T12:50:18;3.33;;;2.00;;
76935;SDS011;65881;52.438;16.744;2023-03-12T12:52:48;4.65;;;2.38;;
76935;SDS011;65881;52.438;16.744;2023-03-12T12:55:42;5.55;;;2.13;;
76935;SDS011;65881;52.438;16.744;2023-03-12T12:58:21;3.78;;;2.17;;
76935;SDS011;65881;52.438;16.744;2023-03-12T13:00:55;6.15;;;2.55;;
76935;SDS011;65881;52.438;16.744;2023-03-12T13:03:28;6.63;;;2.10;;
76935;SDS011;65881;52.438;16.744;2023-03-12T13:05:58;3.13;;;1.70;;
76935;SDS011;65881;52.438;16.744;2023-03-12T13:14:33;7.00;;;2.28;;
76935;SDS011;65881;52.438;16.744;2023-03-12T13:24:52;11.50;;;3.13;;
76935;SDS011;65881;52.438;16.744;2023-03-12T13:27:43;6.22;;;2.40;;
76935;SDS011;65881;52.438;16.744;2023-03-12T13:33:04;5.90;;;2.15;;
76935;SDS011;65881;52.438;16.744;2023-03-12T13:35:43;6.75;;;2.20;;
76935;SDS011;65881;52.438;16.744;2023-03-12T13:38:35;2.78;;;1.98;;
76935;SDS011;65881;52.438;16.744;2023-03-12T13:41:04;2.40;;;1.60;;
76935;SDS011;65881;52.438;16.744;2023-03-12T13:43:39;5.00;;;2.10;;
76935;SDS011;65881;52.438;16.744;2023-03-12T13:49:03;4.30;;;2.25;;
76935;SDS011;65881;52.438;16.744;2023-03-12T13:51:41;3.67;;;2.28;;
76935;SDS011;65881;52.438;16.744;2023-03-12T13:54:18;2.55;;;1.98;;
76935;SDS011;65881;52.438;16.744;2023-03-12T13:56:55;2.58;;;2.10;;
76935;SDS011;65881;52.438;16.744;2023-03-12T13:59:53;3.80;;;2.20;;
76935;SDS011;65881;52.438;16.744;2023-03-12T14:02:31;5.57;;;2.55;;
76935;SDS011;65881;52.438;16.744;2023-03-12T14:19:22;5.47;;;2.40;;
76935;SDS011;65881;52.438;16.744;2023-03-12T14:22:03;4.40;;;3.13;;
76935;SDS011;65881;52.438;16.744;2023-03-12T14:24:52;2.85;;;1.98;;
76935;SDS011;65881;52.438;16.744;2023-03-12T14:27:40;2.40;;;1.90;;
76935;SDS011;65881;52.438;16.744;2023-03-12T14:33:04;4.72;;;2.55;;
76935;SDS011;65881;52.438;16.744;2023-03-12T14:35:40;4.88;;;2.58;;
76935;SDS011;65881;52.438;16.744;2023-03-12T14:38:16;3.92;;;2.13;;
76935;SDS011;65881;52.438;16.744;2023-03-12T14:41:34;4.13;;;2.83;;
76935;SDS011;65881;52.438;16.744;2023-03-12T14:44:24;3.42;;;2.42;;
76935;SDS011;65881;52.438;16.744;2023-03-12T14:46:59;6.10;;;2.53;;
76935;SDS011;65881;52.438;16.744;2023-03-12T14:49:27;3.65;;;2.92;;
76935;SDS011;65881;52.438;16.744;2023-03-12T14:51:56;5.40;;;2.78;;
76935;SDS011;65881;52.438;16.744;2023-03-12T14:54:34;3.00;;;2.50;;
76935;SDS011;65881;52.438;16.744;2023-03-12T15:00:28;7.20;;;2.80;;
76935;SDS011;65881;52.438;16.744;2023-03-12T15:02:54;5.32;;;2.58;;
76935;SDS011;65881;52.438;16.744;2023-03-12T15:05:23;4.82;;;2.72;;
76935;SDS011;65881;52.438;16.744;2023-03-12T15:07:53;5.35;;;2.63;;
76935;SDS011;65881;52.438;16.744;2023-03-12T15:10:30;5.80;;;2.95;;
76935;SDS011;65881;52.438;16.744;2023-03-12T15:13:08;4.45;;;2.70;;
76935;SDS011;65881;52.438;16.744;2023-03-12T15:15:47;6.15;;;2.35;;
76935;SDS011;65881;52.438;16.744;2023-03-12T15:18:32;4.05;;;2.50;;
76935;SDS011;65881;52.438;16.744;2023-03-12T15:21:06;3.70;;;2.50;;
76935;SDS011;65881;52.438;16.744;2023-03-12T15:23:59;4.88;;;2.58;;
76935;SDS011;65881;52.438;16.744;2023-03-12T15:29:30;3.78;;;2.83;;
76935;SDS011;65881;52.438;16.744;2023-03-12T15:31:58;6.43;;;2.53;;
76935;SDS011;65881;52.438;16.744;2023-03-12T15:37:22;3.60;;;2.15;;
76935;SDS011;65881;52.438;16.744;2023-03-12T15:40:03;3.60;;;2.85;;
76935;SDS011;65881;52.438;16.744;2023-03-12T15:42:53;4.53;;;2.97;;
76935;SDS011;65881;52.438;16.744;2023-03-12T15:45:24;5.70;;;2.80;;
76935;SDS011;65881;52.438;16.744;2023-03-12T15:47:55;5.65;;;2.70;;
76935;SDS011;65881;52.438;16.744;2023-03-12T15:50:47;4.15;;;3.15;;
76935;SDS011;65881;52.438;16.744;2023-03-12T15:53:29;4.10;;;3.60;;
76935;SDS011;65881;52.438;16.744;2023-03-12T15:56:02;4.35;;;2.55;;
76935;SDS011;65881;52.438;16.744;2023-03-12T15:58:58;5.82;;;3.28;;
76935;SDS011;65881;52.438;16.744;2023-03-12T16:01:48;8.93;;;4.20;;
76935;SDS011;65881;52.438;16.744;2023-03-12T16:04:18;6.88;;;3.70;;
76935;SDS011;65881;52.438;16.744;2023-03-12T16:10:21;12.45;;;4.80;;
76935;SDS011;65881;52.438;16.744;2023-03-12T16:13:18;8.70;;;4.55;;
76935;SDS011;65881;52.438;16.744;2023-03-12T16:18:16;7.15;;;3.88;;
76935;SDS011;65881;52.438;16.744;2023-03-12T16:20:46;9.60;;;4.55;;
76935;SDS011;65881;52.438;16.744;2023-03-12T16:23:19;15.65;;;8.02;;
76935;SDS011;65881;52.438;16.744;2023-03-12T16:25:47;10.02;;;7.22;;
76935;SDS011;65881;52.438;16.744;2023-03-12T16:28:15;12.05;;;4.90;;
76935;SDS011;65881;52.438;16.744;2023-03-12T16:30:43;8.70;;;5.43;;
76935;SDS011;65881;52.438;16.744;2023-03-12T16:33:16;8.77;;;4.95;;
76935;SDS011;65881;52.438;16.744;2023-03-12T16:35:45;5.22;;;3.90;;
76935;SDS011;65881;52.438;16.744;2023-03-12T16:38:20;8.75;;;4.15;;
76935;SDS011;65881;52.438;16.744;2023-03-12T16:40:46;8.55;;;4.70;;
76935;SDS011;65881;52.438;16.744;2023-03-12T16:43:18;8.75;;;6.22;;
76935;SDS011;65881;52.438;16.744;2023-03-12T16:46:02;14.45;;;7.90;;
76935;SDS011;65881;52.438;16.744;2023-03-12T16:49:12;10.70;;;5.60;;
76935;SDS011;65881;52.438;16.744;2023-03-12T16:54:14;14.73;;;6.47;;
76935;SDS011;65881;52.438;16.744;2023-03-12T17:00:07;9.88;;;6.15;;
76935;SDS011;65881;52.438;16.744;2023-03-12T17:02:36;10.32;;;5.88;;
76935;SDS011;65881;52.438;16.744;2023-03-12T17:05:02;14.68;;;9.10;;
76935;SDS011;65881;52.438;16.744;2023-03-12T17:07:28;26.50;;;11.00;;
76935;SDS011;65881;52.438;16.744;2023-03-12T17:09:56;32.85;;;15.10;;
76935;SDS011;65881;52.438;16.744;2023-03-12T17:12:31;21.42;;;13.27;;
76935;SDS011;65881;52.438;16.744;2023-03-12T17:15:13;20.83;;;13.00;;
76935;SDS011;65881;52.438;16.744;2023-03-12T17:17:50;21.45;;;13.48;;
76935;SDS011;65881;52.438;16.744;2023-03-12T17:20:18;20.50;;;10.77;;
76935;SDS011;65881;52.438;16.744;2023-03-12T17:22:44;19.48;;;10.52;;
76935;SDS011;65881;52.438;16.744;2023-03-12T17:25:19;9.73;;;5.93;;
76935;SDS011;65881;52.438;16.744;2023-03-12T17:27:52;14.82;;;5.45;;
76935;SDS011;65881;52.438;16.744;2023-03-12T17:30:20;12.82;;;6.93;;
76935;SDS011;65881;52.438;16.744;2023-03-12T17:32:46;11.02;;;7.10;;
76935;SDS011;65881;52.438;16.744;2023-03-12T17:35:12;14.80;;;7.97;;